Time;durP1;ratioP1;P1;durP2;ratioP2;P2;SDS_P1;SDS_P2;PMS_P1;PMS_P2;Temp;Humidity;BMP_temperature;BMP_pressure;BME280_temperature;BME280_humidity;BME280_pressure;Samples;Min_cycle;Max_cycle;Signal;HPM_P1;HPM_P2
2022/09/29 00:00:55;;;;;;;5.20;2.65;;;;;;;16.08;46.49;99747.22;5058231;28;20031;-65
2022/09/29 00:03:21;;;;;;;6.22;2.47;;;;;;;16.10;46.85;99758.66;5074691;28;20074;-65
2022/09/29 00:05:51;;;;;;;3.15;2.67;;;;;;;16.07;46.49;99740.13;5058086;28;20401;-65
2022/09/29 00:08:18;;;;;;;6.13;2.53;;;;;;;16.07;46.60;99748.22;5041322;28;20447;-64
2022/09/29 00:10:44;;;;;;;6.43;2.85;;;;;;;16.05;46.61;99747.59;5058444;28;20028;-65
2022/09/29 00:13:10;;;;;;;3.30;2.83;;;;;;;16.04;46.01;99754.03;5058000;28;20066;-64
2022/09/29 00:15:35;;;;;;;3.08;2.40;;;;;;;16.03;45.85;99746.94;5058014;28;20028;-64
2022/09/29 00:18:00;;;;;;;3.55;2.50;;;;;;;16.00;46.57;99750.00;5041205;28;20029;-64
2022/09/29 00:20:26;;;;;;;4.97;2.72;;;;;;;15.98;46.33;99752.06;5041291;28;20024;-64
2022/09/29 00:22:51;;;;;;;5.97;2.40;;;;;;;15.97;47.04;99745.00;5040982;28;20071;-64
2022/09/29 00:25:17;;;;;;;3.70;2.75;;;;;;;15.95;46.26;99741.66;5075661;28;20055;-64
2022/09/29 00:27:43;;;;;;;4.50;2.28;;;;;;;15.92;45.88;99739.31;5057874;28;20029;-64
2022/09/29 00:30:09;;;;;;;3.00;2.78;;;;;;;15.91;46.72;99743.06;5041033;28;20040;-64
2022/09/29 00:32:35;;;;;;;2.90;2.70;;;;;;;15.89;46.02;99745.09;5041104;28;20028;-64
2022/09/29 00:35:00;;;;;;;5.28;2.97;;;;;;;15.86;46.76;99745.47;5075564;28;20508;-64
2022/09/29 00:37:26;;;;;;;7.75;3.10;;;;;;;15.81;45.78;99743.34;5057601;28;20032;-64
2022/09/29 00:39:52;;;;;;;5.15;3.53;;;;;;;15.80;46.49;99743.56;5040897;28;20385;-64
2022/09/29 00:42:18;;;;;;;3.78;2.30;;;;;;;15.77;46.27;99743.94;5040894;28;20024;-64
2022/09/29 00:44:56;;;;;;;6.82;2.90;;;;;;;15.77;47.15;99752.03;5040799;28;20055;-64
2022/09/29 00:47:22;;;;;;;3.88;3.03;;;;;;;15.72;45.92;99750.72;5075172;28;20056;-64
2022/09/29 00:49:58;;;;;;;4.22;2.60;;;;;;;15.70;47.07;99754.66;5040578;28;20105;-64
2022/09/29 00:52:33;;;;;;;7.70;2.80;;;;;;;15.66;46.84;99754.16;5040550;28;20472;-64
2022/09/29 00:55:15;;;;;;;5.95;3.30;;;;;;;15.64;45.89;99753.53;5057352;28;20109;-64
2022/09/29 00:57:53;;;;;;;5.50;3.13;;;;;;;15.61;46.32;99759.31;5057235;28;20469;-64
2022/09/29 01:00:18;;;;;;;5.72;3.20;;;;;;;15.58;46.99;99758.84;5056991;28;20115;-64
2022/09/29 01:03:01;;;;;;;5.18;2.80;;;;;;;15.56;45.83;99761.72;5056949;28;20100;-64
2022/09/29 01:05:33;;;;;;;5.35;2.88;;;;;;;15.54;45.77;99758.41;5040361;28;20031;-64
2022/09/29 01:08:08;;;;;;;3.33;2.10;;;;;;;15.52;46.13;99755.03;5057279;28;20064;-64
2022/09/29 01:10:34;;;;;;;3.35;3.05;;;;;;;15.48;46.93;99753.75;5040176;28;20269;-64
2022/09/29 01:12:59;;;;;;;3.42;2.70;;;;;;;15.47;46.29;99751.22;5040061;28;20474;-64
2022/09/29 01:15:28;;;;;;;4.72;2.90;;;;;;;15.43;47.08;99755.28;5040000;28;20032;-64
2022/09/29 01:17:54;;;;;;;4.28;2.83;;;;;;;15.38;47.42;99755.84;5057216;28;20021;-64
2022/09/29 01:20:21;;;;;;;8.32;2.70;;;;;;;15.40;46.61;99748.41;5056699;28;20024;-64
2022/09/29 01:23:01;;;;;;;6.63;3.03;;;;;;;15.40;45.89;99748.41;5074387;28;20387;-64
2022/09/29 01:25:42;;;;;;;4.57;3.30;;;;;;;15.40;45.99;99755.66;5056528;28;20024;-64
2022/09/29 01:28:41;;;;;;;8.32;3.53;;;;;;;15.38;45.75;99753.13;5056457;28;20028;-64
2022/09/29 01:31:44;;;;;;;3.20;2.63;;;;;;;15.34;46.45;99751.84;5074366;28;20465;-64
2022/09/29 01:34:12;;;;;;;4.23;2.30;;;;;;;15.31;45.71;99757.63;5074387;28;20028;-64
2022/09/29 01:37:00;;;;;;;5.70;2.35;;;;;;;15.27;47.13;99758.19;5074200;28;20048;-64
2022/09/29 01:39:32;;;;;;;8.52;2.85;;;;;;;15.22;45.86;99761.41;5056228;28;20024;-64
2022/09/29 01:42:00;;;;;;;6.68;3.17;;;;;;;15.21;45.97;99761.63;5039515;28;20439;-64
2022/09/29 01:44:40;;;;;;;3.75;3.35;;;;;;;15.20;45.89;99763.47;5074054;28;20033;-64
2022/09/29 01:47:12;;;;;;;3.95;2.90;;;;;;;15.18;45.97;99756.59;5074012;28;20031;-64
2022/09/29 01:49:49;;;;;;;4.40;3.33;;;;;;;15.17;46.67;99755.75;5039763;28;20115;-64
2022/09/29 01:52:21;;;;;;;6.35;3.20;;;;;;;15.15;45.94;99764.03;5056181;28;20027;-64
2022/09/29 01:54:51;;;;;;;5.00;3.28;;;;;;;15.16;47.26;99764.84;5039465;28;20024;-64
2022/09/29 01:57:22;;;;;;;4.28;3.25;;;;;;;15.15;45.73;99764.03;5056040;28;20409;-64
2022/09/29 02:00:00;;;;;;;3.40;2.75;;;;;;;15.14;47.16;99762.34;5073749;28;20028;-64
2022/09/29 02:02:38;;;;;;;14.55;3.88;;;;;;;15.13;46.59;99765.25;5055743;28;20016;-64
2022/09/29 02:05:08;;;;;;;4.07;2.50;;;;;;;15.15;45.85;99768.59;5073736;28;20117;-64
2022/09/29 02:07:37;;;;;;;3.70;3.20;;;;;;;15.17;46.94;99771.94;5056080;28;20055;-64
2022/09/29 02:10:11;;;;;;;8.52;3.22;;;;;;;15.18;47.19;99762.81;5039164;28;20031;-64
2022/09/29 02:12:38;;;;;;;6.13;3.30;;;;;;;15.19;46.92;99758.28;5073648;28;20035;-63
2022/09/29 02:15:06;;;;;;;4.28;3.20;;;;;;;15.20;46.69;99765.31;5039149;28;20039;-64
2022/09/29 02:17:41;;;;;;;4.70;3.00;;;;;;;15.20;46.10;99770.72;5039267;28;20052;-64
2022/09/29 02:20:09;;;;;;;3.47;2.70;;;;;;;15.20;46.09;99766.16;5055732;28;20028;-64
2022/09/29 02:22:35;;;;;;;5.95;2.63;;;;;;;15.20;46.16;99768.03;5055683;28;20209;-64
2022/09/29 02:25:00;;;;;;;6.22;3.15;;;;;;;15.19;47.34;99759.09;5038393;28;20054;-64
2022/09/29 02:27:32;;;;;;;4.40;2.78;;;;;;;15.17;47.33;99766.53;5055658;28;20063;-64
2022/09/29 02:29:58;;;;;;;4.30;2.80;;;;;;;15.16;46.78;99765.69;5056398;28;20384;-64
2022/09/29 02:32:23;;;;;;;4.75;3.13;;;;;;;15.16;46.72;99765.69;5073383;28;20028;-64
2022/09/29 02:34:50;;;;;;;5.30;2.38;;;;;;;15.15;46.52;99763.19;5022379;28;20031;-64
2022/09/29 02:37:35;;;;;;;5.95;3.25;;;;;;;15.14;47.18;99764.19;5073383;28;20024;-64
2022/09/29 02:40:06;;;;;;;3.85;2.42;;;;;;;15.12;47.49;99767.09;5055448;28;20032;-64
2022/09/29 02:43:06;;;;;;;5.00;2.58;;;;;;;15.07;46.33;99765.97;5073243;28;20041;-63
2022/09/29 02:46:02;;;;;;;8.35;3.13;;;;;;;15.05;45.77;99765.31;5055296;28;20119;-64
2022/09/29 02:48:39;;;;;;;3.45;2.63;;;;;;;15.02;47.36;99762.97;5073294;28;20040;-64
2022/09/29 02:51:14;;;;;;;3.13;2.30;;;;;;;14.99;47.20;99760.66;5073333;28;20028;-64
2022/09/29 02:53:58;;;;;;;2.72;2.10;;;;;;;14.94;45.98;99766.59;5055425;28;20477;-64
2022/09/29 02:56:53;;;;;;;3.88;2.40;;;;;;;14.91;47.42;99760.72;5073194;28;20070;-64
2022/09/29 02:59:23;;;;;;;2.95;1.83;;;;;;;14.85;46.30;99762.28;5055295;28;20598;-64
2022/09/29 03:01:51;;;;;;;2.50;2.08;;;;;;;14.77;46.06;99758.84;5038644;28;20111;-64
2022/09/29 03:04:18;;;;;;;8.45;2.72;;;;;;;14.75;46.03;99763.56;5038223;28;20016;-64
2022/09/29 03:06:44;;;;;;;2.95;2.10;;;;;;;14.72;46.28;99762.09;5054944;28;20115;-64
2022/09/29 03:09:10;;;;;;;3.47;2.45;;;;;;;14.69;47.37;99765.13;5054990;28;20468;-63
2022/09/29 03:11:35;;;;;;;3.83;2.40;;;;;;;14.66;45.64;99770.03;5054968;28;20020;-64
2022/09/29 03:14:00;;;;;;;3.47;2.15;;;;;;;14.61;46.63;99764.38;5038060;28;20016;-64
2022/09/29 03:16:26;;;;;;;2.90;2.15;;;;;;;14.59;46.40;99764.56;5038226;28;20065;-64
2022/09/29 03:18:51;;;;;;;6.78;2.40;;;;;;;14.55;46.77;99756.00;5072717;28;20397;-64
2022/09/29 03:21:16;;;;;;;4.03;2.58;;;;;;;14.51;47.04;99756.53;5054486;28;20052;-64
2022/09/29 03:23:42;;;;;;;3.92;3.30;;;;;;;14.50;47.43;99763.78;5054844;28;20496;-64
2022/09/29 03:26:07;;;;;;;4.07;2.70;;;;;;;14.46;46.17;99762.47;5038257;28;20024;-64
2022/09/29 03:28:32;;;;;;;3.35;2.60;;;;;;;14.44;46.30;99761.81;5054913;28;20033;-64
2022/09/29 03:31:08;;;;;;;3.47;2.47;;;;;;;14.43;45.96;99762.00;5054920;28;20028;-64
2022/09/29 03:33:35;;;;;;;2.25;1.70;;;;;;;14.38;45.83;99759.81;5072933;28;20427;-64
2022/09/29 03:36:02;;;;;;;2.97;1.63;;;;;;;14.34;45.80;99758.53;5055463;28;20029;-63
2022/09/29 03:38:28;;;;;;;3.13;2.50;;;;;;;14.31;45.82;99768.78;5058766;28;20021;-64
2022/09/29 03:40:53;;;;;;;2.78;2.00;;;;;;;14.29;46.43;99760.88;5058549;28;20134;-64
2022/09/29 03:43:19;;;;;;;3.10;2.55;;;;;;;14.25;46.72;99770.34;5041903;28;20081;-64
2022/09/29 03:45:52;;;;;;;11.75;2.45;;;;;;;14.24;45.98;99768.66;5058543;28;20033;-64
2022/09/29 03:48:18;;;;;;;3.17;2.45;;;;;;;14.20;46.03;99772.72;5058546;28;20112;-64
2022/09/29 03:50:44;;;;;;;2.30;2.08;;;;;;;14.19;46.16;99776.44;5076305;28;20033;-64
2022/09/29 03:53:10;;;;;;;2.47;2.25;;;;;;;14.14;46.56;99767.22;5058663;28;20076;-64
2022/09/29 03:55:36;;;;;;;3.85;2.63;;;;;;;14.13;46.97;99771.75;5058150;28;20063;-64
2022/09/29 03:58:01;;;;;;;3.03;1.85;;;;;;;14.09;46.44;99772.28;5041539;28;20490;-63
2022/09/29 04:00:26;;;;;;;2.10;1.83;;;;;;;14.04;45.72;99769.31;5076152;28;20036;-64
2022/09/29 04:02:55;;;;;;;3.00;2.10;;;;;;;14.04;46.55;99783.59;5041446;28;20032;-63
2022/09/29 04:05:21;;;;;;;2.60;2.10;;;;;;;14.00;46.86;99782.28;5041537;28;20027;-63
2022/09/29 04:07:46;;;;;;;2.50;2.08;;;;;;;13.98;46.05;99778.94;5041706;28;20033;-63
2022/09/29 04:10:12;;;;;;;3.75;2.28;;;;;;;13.96;45.70;99780.94;5041397;28;20047;-64
2022/09/29 04:12:37;;;;;;;3.10;2.38;;;;;;;13.91;47.11;99775.25;5058115;28;20028;-63
2022/09/29 04:15:03;;;;;;;2.50;2.03;;;;;;;13.91;46.32;99778.78;5041333;28;20477;-63
2022/09/29 04:17:29;;;;;;;4.10;2.33;;;;;;;13.91;46.31;99783.31;5024939;28;20028;-63
2022/09/29 04:19:54;;;;;;;6.25;2.83;;;;;;;13.87;46.10;99772.06;5057983;28;20036;-63
2022/09/29 04:22:20;;;;;;;3.28;2.30;;;;;;;13.86;46.08;99777.63;5076395;28;20048;-63
2022/09/29 04:24:47;;;;;;;2.50;2.17;;;;;;;13.87;45.97;99782.81;5041169;28;20028;-65
2022/09/29 04:27:15;;;;;;;3.58;2.40;;;;;;;13.85;46.79;99784.88;5058015;28;20424;-64
2022/09/29 04:29:41;;;;;;;6.38;2.22;;;;;;;13.86;46.87;99791.94;5040790;28;20097;-64
2022/09/29 04:32:06;;;;;;;2.03;1.83;;;;;;;13.84;46.31;99793.97;5075165;28;20474;-64
2022/09/29 04:34:32;;;;;;;3.05;2.33;;;;;;;13.83;46.22;99796.81;5041002;28;20111;-64
2022/09/29 04:36:57;;;;;;;4.03;2.20;;;;;;;13.79;46.80;99790.94;5040780;28;20040;-64
2022/09/29 04:39:23;;;;;;;2.33;2.13;;;;;;;13.77;46.99;99787.59;5040668;28;20068;-63
2022/09/29 04:41:48;;;;;;;5.43;2.08;;;;;;;13.77;45.90;99802.91;5024216;28;20035;-64
2022/09/29 04:44:14;;;;;;;2.00;1.73;;;;;;;13.76;46.95;99803.94;5040649;28;20582;-64
2022/09/29 04:46:39;;;;;;;2.40;1.60;;;;;;;13.73;45.93;99801.59;5057579;28;20060;-64
2022/09/29 04:49:04;;;;;;;2.50;1.83;;;;;;;13.74;45.91;99803.25;5040038;28;20040;-64
2022/09/29 04:51:30;;;;;;;3.50;2.17;;;;;;;13.70;46.19;99808.16;5057239;28;20497;-63
2022/09/29 04:53:57;;;;;;;2.15;1.83;;;;;;;13.68;46.95;99804.78;5057138;28;20029;-64
2022/09/29 04:56:22;;;;;;;4.50;2.10;;;;;;;13.68;46.90;99806.66;5057026;28;20481;-64
2022/09/29 04:58:48;;;;;;;3.42;1.92;;;;;;;13.67;46.25;99813.91;5040515;28;20029;-64
2022/09/29 05:01:14;;;;;;;2.22;1.48;;;;;;;13.63;46.03;99806.31;5040533;28;20541;-64
2022/09/29 05:03:40;;;;;;;1.60;1.50;;;;;;;13.63;47.11;99809.00;5040443;28;20401;-64
2022/09/29 05:06:08;;;;;;;2.63;1.50;;;;;;;13.60;45.86;99812.03;5039943;28;20131;-64
2022/09/29 05:08:33;;;;;;;3.00;1.90;;;;;;;13.60;46.90;99817.44;5040049;28;20474;-64
2022/09/29 05:11:03;;;;;;;4.32;1.70;;;;;;;13.57;47.03;99823.19;5074337;28;20040;-64
2022/09/29 05:13:28;;;;;;;2.55;2.33;;;;;;;13.55;46.28;99814.44;5056754;28;20024;-64
2022/09/29 05:15:55;;;;;;;6.13;2.42;;;;;;;13.53;46.11;99816.47;5056362;28;20513;-64
2022/09/29 05:18:20;;;;;;;1.58;1.42;;;;;;;13.49;46.34;99809.72;5056687;28;20024;-64
2022/09/29 05:20:46;;;;;;;5.30;2.17;;;;;;;13.47;46.77;99823.38;5039716;28;20483;-64
2022/09/29 05:23:11;;;;;;;7.30;2.28;;;;;;;13.47;46.91;99822.53;5056309;28;20056;-64
2022/09/29 05:25:37;;;;;;;4.25;2.25;;;;;;;13.45;46.17;99819.19;5074337;28;20075;-64
2022/09/29 05:28:02;;;;;;;2.38;1.58;;;;;;;13.43;46.05;99810.44;5023191;28;20025;-63
2022/09/29 05:30:27;;;;;;;2.17;1.73;;;;;;;13.43;46.92;99825.56;5056478;28;20032;-63
2022/09/29 05:32:53;;;;;;;2.20;1.30;;;;;;;13.43;45.96;99829.28;5056743;28;20024;-64
2022/09/29 05:35:18;;;;;;;3.75;2.35;;;;;;;13.43;46.02;99833.63;5040195;28;20036;-64
2022/09/29 05:37:44;;;;;;;3.00;2.05;;;;;;;13.43;46.04;99834.66;5056825;28;20035;-64
2022/09/29 05:40:10;;;;;;;3.80;1.90;;;;;;;13.43;46.70;99831.97;5040033;28;20036;-64
2022/09/29 05:42:35;;;;;;;3.38;2.22;;;;;;;13.45;47.17;99836.16;5074162;28;20436;-64
2022/09/29 05:45:00;;;;;;;5.60;2.63;;;;;;;13.46;46.77;99842.34;5074058;28;20401;-64
2022/09/29 05:47:26;;;;;;;8.07;3.38;;;;;;;13.46;47.37;99847.72;5023332;28;20123;-64
2022/09/29 05:49:51;;;;;;;3.08;2.47;;;;;;;13.47;46.70;99846.72;5056199;28;20039;-64
2022/09/29 05:52:17;;;;;;;1.90;1.38;;;;;;;13.50;46.03;99846.41;5039382;28;20040;-64
2022/09/29 05:54:42;;;;;;;2.03;1.63;;;;;;;13.46;46.47;99843.19;5039419;28;20052;-64
2022/09/29 05:57:07;;;;;;;2.20;1.63;;;;;;;13.47;46.46;99849.44;5039320;28;20051;-63
2022/09/29 05:59:33;;;;;;;1.40;1.30;;;;;;;13.52;47.09;99855.13;5073275;28;20060;-63
2022/09/29 06:01:58;;;;;;;2.65;1.65;;;;;;;13.54;46.91;99856.63;5055469;28;20032;-64
2022/09/29 06:04:23;;;;;;;6.55;2.58;;;;;;;13.62;46.66;99858.47;5073041;28;20108;-64
2022/09/29 06:06:49;;;;;;;6.57;2.90;;;;;;;13.72;46.52;99859.13;5073650;28;20044;-64
2022/09/29 06:09:14;;;;;;;4.95;2.20;;;;;;;13.86;47.00;99861.09;5055960;28;20067;-64
2022/09/29 06:11:40;;;;;;;6.63;2.70;;;;;;;13.96;46.19;99867.09;5039323;28;20397;-64
2022/09/29 06:14:05;;;;;;;4.30;2.60;;;;;;;14.13;46.47;99867.84;5039239;28;20141;-64
2022/09/29 06:16:32;;;;;;;4.10;2.78;;;;;;;14.32;47.25;99872.88;5039207;28;20025;-64
2022/09/29 06:18:58;;;;;;;4.35;2.55;;;;;;;14.42;46.07;99871.63;5055779;28;20504;-64
2022/09/29 06:21:25;;;;;;;3.35;2.70;;;;;;;14.48;46.09;99867.38;5055673;28;20056;-64
2022/09/29 06:23:53;;;;;;;2.38;2.17;;;;;;;14.62;46.63;99871.16;5039026;28;20028;-64
2022/09/29 06:26:19;;;;;;;2.65;1.92;;;;;;;14.78;46.06;99868.34;5039024;28;20043;-64
2022/09/29 06:28:44;;;;;;;3.05;2.60;;;;;;;14.84;46.08;99873.03;5055659;28;20027;-64
2022/09/29 06:31:12;;;;;;;3.17;2.35;;;;;;;14.90;46.69;99865.06;5038829;28;20478;-63
2022/09/29 06:33:38;;;;;;;3.72;2.78;;;;;;;15.05;46.11;99870.50;5039079;28;20071;-63
2022/09/29 06:39:18;;;;;;;3.80;2.17;;;;;;;15.34;46.86;99875.13;5050578;28;20406;-63
2022/09/29 06:41:50;;;;;;;4.28;2.60;;;;;;;15.48;47.08;99877.06;5039003;28;20020;-63
2022/09/29 06:44:16;;;;;;;4.45;2.42;;;;;;;15.57;46.77;99884.91;5039759;28;20032;-63
2022/09/29 06:46:41;;;;;;;6.57;2.40;;;;;;;15.69;45.56;99869.91;5055508;28;20028;-63
2022/09/29 06:49:07;;;;;;;6.65;2.72;;;;;;;15.93;46.16;99878.75;5038711;28;20036;-63
2022/09/29 06:51:34;;;;;;;3.35;2.33;;;;;;;16.12;45.36;99891.69;5073304;28;20053;-63
2022/09/29 06:53:59;;;;;;;3.40;2.30;;;;;;;16.27;46.75;99887.13;5038627;28;20461;-63
2022/09/29 06:56:25;;;;;;;4.60;2.55;;;;;;;16.47;46.57;99890.88;5055122;28;20035;-63
2022/09/29 06:58:50;;;;;;;3.45;2.40;;;;;;;16.56;45.56;99883.53;5038513;28;20452;-63
2022/09/29 07:01:15;;;;;;;3.30;2.20;;;;;;;16.70;45.48;99880.78;5055151;28;20025;-63
2022/09/29 07:03:41;;;;;;;7.68;3.35;;;;;;;16.82;45.76;99884.66;5055126;28;20437;-63
2022/09/29 07:06:08;;;;;;;2.95;2.38;;;;;;;17.05;45.35;99889.03;5073025;28;20028;-63
2022/09/29 07:08:35;;;;;;;2.83;2.22;;;;;;;17.20;44.95;99892.50;5055342;28;20032;-63
2022/09/29 07:11:02;;;;;;;5.07;2.92;;;;;;;17.41;45.48;99892.47;5055620;28;20024;-63
2022/09/29 07:13:27;;;;;;;3.83;2.38;;;;;;;17.62;44.42;99887.03;5076977;28;20473;-64
2022/09/29 07:15:53;;;;;;;2.60;2.35;;;;;;;17.81;45.31;99883.63;5059019;28;20028;-63
2022/09/29 07:18:19;;;;;;;5.72;2.40;;;;;;;17.99;44.93;99886.66;5076901;28;20021;-63
2022/09/29 07:20:44;;;;;;;5.07;2.53;;;;;;;18.19;45.02;99884.06;5042422;28;20033;-63
2022/09/29 07:23:10;;;;;;;4.35;2.92;;;;;;;18.36;45.03;99881.84;5058789;28;20056;-63
2022/09/29 07:25:36;;;;;;;5.15;2.80;;;;;;;18.55;44.39;99891.94;5042327;28;20033;-64
2022/09/29 07:28:01;;;;;;;4.82;2.25;;;;;;;18.74;44.67;99895.75;5076659;28;20043;-64
2022/09/29 07:30:27;;;;;;;2.42;2.05;;;;;;;18.93;43.73;99901.22;5042120;28;20032;-64
2022/09/29 07:32:55;;;;;;;3.47;2.58;;;;;;;19.10;44.11;99897.09;5058723;28;20021;-64
2022/09/29 07:35:21;;;;;;;4.38;2.92;;;;;;;19.29;44.20;99892.72;5025565;28;20032;-64
2022/09/29 07:37:51;;;;;;;3.80;2.40;;;;;;;19.48;43.80;99901.97;5058822;28;20127;-64
2022/09/29 07:40:16;;;;;;;7.22;2.67;;;;;;;19.62;43.38;99892.75;5076502;28;20024;-64
2022/09/29 07:42:41;;;;;;;4.28;2.70;;;;;;;19.80;42.91;99901.06;5041955;28;20050;-64
2022/09/29 07:45:07;;;;;;;5.72;2.78;;;;;;;20.01;43.52;99906.28;5058516;28;20095;-64
2022/09/29 07:47:33;;;;;;;7.32;2.35;;;;;;;20.20;42.87;99910.84;5058472;28;20032;-64
2022/09/29 07:49:58;;;;;;;10.73;2.63;;;;;;;20.42;43.09;99916.00;5058566;28;20025;-65
2022/09/29 07:52:23;;;;;;;2.75;2.40;;;;;;;20.59;43.03;99911.75;5058413;28;20078;-64
2022/09/29 07:54:49;;;;;;;4.93;2.40;;;;;;;20.80;42.26;99916.88;5076194;28;20028;-64
2022/09/29 07:57:14;;;;;;;2.97;2.08;;;;;;;20.99;42.55;99910.50;5025256;28;20441;-64
2022/09/29 07:59:39;;;;;;;4.35;1.98;;;;;;;21.24;42.52;99916.88;5058340;28;20420;-64
2022/09/29 08:02:06;;;;;;;7.13;2.65;;;;;;;21.51;42.13;99922.09;5041584;28;20040;-64
2022/09/29 08:04:32;;;;;;;5.05;2.25;;;;;;;21.73;42.66;99928.81;5041593;28;20113;-65
2022/09/29 08:06:57;;;;;;;6.18;2.40;;;;;;;21.95;42.24;99924.66;5041491;28;20119;-65
2022/09/29 08:09:23;;;;;;;5.80;2.20;;;;;;;22.16;41.53;99916.06;5075844;28;20041;-65
2022/09/29 08:11:49;;;;;;;8.95;2.65;;;;;;;22.39;42.27;99910.72;5041526;28;20028;-65
2022/09/29 08:14:14;;;;;;;9.00;3.00;;;;;;;22.61;42.28;99922.84;5058187;28;20036;-65
2022/09/29 08:16:39;;;;;;;6.25;2.30;;;;;;;22.85;41.66;99925.72;5057998;28;20056;-65
2022/09/29 08:19:05;;;;;;;5.07;2.00;;;;;;;23.03;41.30;99929.25;5057904;28;20101;-65
2022/09/29 08:21:35;;;;;;;6.88;2.00;;;;;;;23.23;41.29;99928.94;5053920;28;20052;-65
2022/09/29 08:24:01;;;;;;;5.60;2.05;;;;;;;23.43;40.45;99925.94;5037274;28;20478;-65
2022/09/29 08:26:26;;;;;;;2.97;1.42;;;;;;;23.55;40.19;99933.13;5037731;28;20082;-64
2022/09/29 08:28:52;;;;;;;4.25;1.35;;;;;;;23.61;40.60;99926.72;5037687;28;20489;-66
2022/09/29 08:31:20;;;;;;;2.88;1.73;;;;;;;23.69;40.33;99933.72;5054355;28;20021;-64
2022/09/29 08:33:47;;;;;;;3.42;1.92;;;;;;;23.75;40.91;99932.78;5054297;28;20035;-65
2022/09/29 08:36:15;;;;;;;6.28;1.48;;;;;;;23.90;40.07;99930.38;5054380;28;20021;-66
2022/09/29 08:38:43;;;;;;;2.47;1.70;;;;;;;24.13;39.99;99937.78;5054606;28;20078;-65
2022/09/29 08:41:34;;;;;;;4.22;1.33;;;;;;;24.40;39.35;99941.69;5037502;28;20452;-64
2022/09/29 08:44:09;;;;;;;3.13;1.40;;;;;;;24.63;39.08;99940.81;5055113;28;20017;-65
2022/09/29 08:46:38;;;;;;;2.55;1.50;;;;;;;24.76;38.75;99940.56;5037482;28;20043;-65
2022/09/29 08:49:32;;;;;;;4.50;1.48;;;;;;;24.92;38.79;99955.41;5053882;28;20025;-66
2022/09/29 08:52:05;;;;;;;2.72;1.30;;;;;;;25.10;38.52;99955.22;5054445;28;20530;-65
2022/09/29 08:54:33;;;;;;;2.33;1.55;;;;;;;25.25;38.65;99944.53;5037026;28;20023;-67
2022/09/29 08:57:00;;;;;;;3.03;1.77;;;;;;;25.35;38.49;99947.44;5036957;28;20039;-66
2022/09/29 08:59:27;;;;;;;2.13;1.67;;;;;;;25.43;38.28;99949.81;5053626;28;20375;-68
2022/09/29 09:02:06;;;;;;;3.65;1.85;;;;;;;25.54;38.03;99953.59;5036936;28;20566;-66
2022/09/29 09:04:50;;;;;;;4.47;1.55;;;;;;;25.66;37.64;99957.91;5053122;28;20470;-66
2022/09/29 09:07:16;;;;;;;4.07;2.05;;;;;;;25.84;37.32;99959.59;5036473;28;20502;-66
2022/09/29 09:10:15;;;;;;;1.70;1.42;;;;;;;26.04;37.10;99958.00;5054413;28;20055;-67
2022/09/29 09:12:49;;;;;;;2.75;1.75;;;;;;;26.23;37.51;99960.50;5054415;28;20095;-67
2022/09/29 09:15:23;;;;;;;5.65;1.58;;;;;;;26.40;37.33;99964.03;5053052;28;20021;-67
2022/09/29 09:18:21;;;;;;;3.70;2.05;;;;;;;26.64;36.91;99957.22;5054202;28;20071;-68
2022/09/29 09:21:00;;;;;;;2.30;1.67;;;;;;;26.86;35.87;99960.81;5036466;28;20028;-67
2022/09/29 09:23:56;;;;;;;3.63;2.30;;;;;;;27.17;36.27;99960.09;5036178;28;20116;-67
2022/09/29 09:26:30;;;;;;;2.97;1.75;;;;;;;27.71;35.18;99958.16;5052926;28;20542;-67
2022/09/29 09:29:00;;;;;;;4.20;1.58;;;;;;;28.60;34.78;99960.16;5052831;28;20394;-67
2022/09/29 09:31:30;;;;;;;6.28;2.25;;;;;;;30.89;31.95;99969.16;5052756;28;20032;-67
2022/09/29 09:33:59;;;;;;;3.22;1.85;;;;;;;31.69;31.28;99952.09;5053878;28;20024;-67
2022/09/29 09:36:37;;;;;;;4.75;2.35;;;;;;;31.09;31.72;99952.50;5052942;28;20033;-68
2022/09/29 09:39:13;;;;;;;3.72;1.90;;;;;;;30.78;32.47;99950.97;5052603;28;20029;-67
2022/09/29 09:41:39;;;;;;;3.72;2.20;;;;;;;30.70;32.66;99954.31;5035866;28;20029;-68
2022/09/29 09:44:16;;;;;;;4.57;2.20;;;;;;;30.78;31.90;99956.50;5035747;28;20033;-67
2022/09/29 09:46:44;;;;;;;6.97;2.22;;;;;;;31.00;32.03;99948.66;5052591;28;20363;-67
2022/09/29 09:49:36;;;;;;;4.35;2.05;;;;;;;31.19;32.13;99952.44;5052347;28;20071;-67
2022/09/29 09:52:14;;;;;;;6.00;2.30;;;;;;;31.39;31.83;99952.31;5052485;28;20091;-67
2022/09/29 09:54:46;;;;;;;3.00;2.20;;;;;;;31.70;31.61;99953.78;5035598;28;20029;-67
2022/09/29 09:57:36;;;;;;;6.00;2.60;;;;;;;32.02;31.00;99949.66;5052399;28;20394;-67
2022/09/29 10:00:19;;;;;;;6.35;2.45;;;;;;;32.32;30.02;99948.50;5053498;28;20262;-67
2022/09/29 10:02:49;;;;;;;8.38;2.40;;;;;;;32.65;29.66;99959.53;5053359;28;20032;-68
2022/09/29 10:05:22;;;;;;;5.90;3.03;;;;;;;32.90;29.74;99947.28;5035757;28;20040;-68
2022/09/29 10:07:48;;;;;;;3.75;2.50;;;;;;;33.05;29.14;99954.59;5052524;28;20033;-67
2022/09/29 10:10:17;;;;;;;4.78;3.00;;;;;;;33.24;29.20;99949.91;5035430;28;20475;-68
2022/09/29 10:12:43;;;;;;;4.95;2.97;;;;;;;33.42;29.53;99951.84;5052126;28;20024;-68
2022/09/29 10:15:17;;;;;;;5.05;3.20;;;;;;;33.59;28.91;99949.38;5052055;28;20048;-68
2022/09/29 10:17:45;;;;;;;5.45;2.50;;;;;;;33.85;29.03;99956.16;5035275;28;20017;-68
2022/09/29 10:20:11;;;;;;;5.70;3.00;;;;;;;34.00;28.62;99957.03;5052004;28;20024;-68
2022/09/29 10:22:37;;;;;;;5.07;2.72;;;;;;;34.01;28.12;99958.66;5051772;28;20071;-68
2022/09/29 10:25:19;;;;;;;5.72;2.72;;;;;;;32.88;29.84;99962.59;5051924;28;20108;-68
2022/09/29 10:27:47;;;;;;;3.78;2.63;;;;;;;32.71;29.14;99963.06;5051850;28;20094;-67
2022/09/29 10:30:20;;;;;;;5.60;2.72;;;;;;;32.84;28.89;99962.34;5035301;28;20025;-67
2022/09/29 10:32:46;;;;;;;6.47;3.22;;;;;;;33.09;29.22;99969.53;5051817;28;20021;-67
2022/09/29 10:35:17;;;;;;;4.90;2.80;;;;;;;33.37;28.46;99971.34;5053016;28;20037;-68
2022/09/29 10:37:46;;;;;;;5.72;2.80;;;;;;;32.74;28.40;99968.84;5052994;28;20021;-69
2022/09/29 10:40:20;;;;;;;9.05;3.30;;;;;;;32.62;28.44;99971.22;5035010;28;20032;-67
2022/09/29 10:42:47;;;;;;;5.63;3.00;;;;;;;33.13;28.20;99973.38;5035134;28;20540;-66
2022/09/29 10:45:16;;;;;;;4.18;2.25;;;;;;;33.45;28.34;99978.22;5035873;28;20063;-67
2022/09/29 10:47:46;;;;;;;5.30;1.63;;;;;;;33.66;26.98;99969.28;5051012;28;20120;-68
2022/09/29 10:50:18;;;;;;;3.35;1.70;;;;;;;33.93;27.50;99974.94;5051523;28;20051;-67
2022/09/29 10:52:48;;;;;;;2.95;1.77;;;;;;;34.11;26.85;99969.66;5051635;28;20021;-68
2022/09/29 10:55:17;;;;;;;6.53;2.05;;;;;;;34.27;26.50;99973.81;5051669;28;20025;-67
2022/09/29 10:57:44;;;;;;;4.53;1.75;;;;;;;34.30;26.82;99984.31;5034834;28;20025;-68
2022/09/29 11:00:25;;;;;;;5.75;2.13;;;;;;;34.45;26.54;99986.84;5051378;28;20043;-67
2022/09/29 11:02:51;;;;;;;2.15;1.23;;;;;;;34.54;26.29;99984.97;5051383;28;20017;-68
2022/09/29 11:05:19;;;;;;;4.38;1.88;;;;;;;34.62;25.67;99978.72;5034722;28;20051;-68
2022/09/29 11:07:46;;;;;;;7.00;1.65;;;;;;;34.72;25.64;99974.91;5051466;28;20108;-68
2022/09/29 11:10:35;;;;;;;10.77;1.92;;;;;;;34.87;26.42;99977.41;5051437;28;20021;-68
2022/09/29 11:13:19;;;;;;;3.35;1.70;;;;;;;34.94;25.97;99977.78;5034746;28;20502;-68
2022/09/29 11:15:44;;;;;;;2.47;1.40;;;;;;;34.94;25.77;99978.63;5052472;28;20429;-68
2022/09/29 11:18:22;;;;;;;3.00;0.85;;;;;;;34.91;25.45;99979.25;5051316;28;20020;-68
2022/09/29 11:20:54;;;;;;;1.40;1.00;;;;;;;34.84;24.30;99980.78;5051181;28;20033;-68
2022/09/29 11:23:37;;;;;;;3.28;0.70;;;;;;;34.87;25.72;99983.75;5034407;28;20041;-68
2022/09/29 11:26:47;;;;;;;1.40;0.80;;;;;;;34.15;25.01;99979.03;5051258;28;20055;-69
2022/09/29 11:29:36;;;;;;;2.88;0.80;;;;;;;33.55;25.74;99984.44;5021760;28;20037;-68
2022/09/29 11:32:14;;;;;;;4.63;0.68;;;;;;;32.44;27.00;99985.78;5051282;28;20043;-68
2022/09/29 11:35:04;;;;;;;2.35;0.70;;;;;;;32.70;25.84;99983.59;5052510;28;20047;-67
2022/09/29 11:37:54;;;;;;;4.18;1.70;;;;;;;33.20;26.25;99993.25;5052408;28;20021;-69
2022/09/29 11:40:44;;;;;;;3.47;1.70;;;;;;;33.53;25.23;99991.41;5051198;28;20029;-69
2022/09/29 11:43:45;;;;;;;4.50;1.42;;;;;;;33.43;26.19;99992.38;5034358;28;20034;-67
2022/09/29 11:46:44;;;;;;;2.85;1.52;;;;;;;33.24;26.86;99995.16;5046537;28;20087;-68
2022/09/29 11:49:12;;;;;;;4.13;1.48;;;;;;;33.20;26.73;99993.25;5034987;28;20039;-68
2022/09/29 11:52:22;;;;;;;2.60;1.25;;;;;;;33.57;26.36;99990.53;5052172;28;20059;-68